Tiempo atmosférico en la estación meteorológica de Cabrales, Asturias (458 m.)



Fecha
DESCASC
Temp. máxima en grados centígrados (hora)
DESCASC
Temp. mínima en grados centígrados (hora)
DESCASC
Temp. media en grados centígrados
DESCASC
Racha de viento máxima en m/sg (hora)
DESCASC
Velocidad máxima media en intervalos de 10 minutos(hora)
DESCASC
Precipitaciones diarias en mm
DESCASC
Precipitaciones de 00:00 a 06:00 en mm
DESCASC
Precipitaciones de 06:00 a 12:00 en mm
DESCASC
Precipitaciones de 12:00 a 18:00 en mm
DESCASC
Precipitaciones de 18:00 a 24:00 en mm
DESCASC
22-04-2019 21.2 (14:10) 6.8 (07:30) 14 9.44 (15:50) 4.72 (18:50) 0 0 0 0 0
21-04-2019 19.5 (16:50) 9 (23:59) 14.3 9.72 (19:20) 6.94 (19:20) 0 0 0 0 0
20-04-2019 21.7 (16:20) 8.9 (06:10) 15.3 14.17 (14:00) 8.61 (13:40) 0 0 0 0 0
19-04-2019 17.7 (19:00) 9.4 (00:00) 13.6 13.33 (17:20) 6.39 (18:40) 7.8 7.8 0 0 0
18-04-2019 17.7 (00:00) 9.4 (00:00) 13.6 11.94 (01:10) 8.61 (01:10) 8.2 0 0 2.2 6
17-04-2019 24.7 (15:20) 10.8 (00:00) 17.8 9.72 (22:10) 5.83 (22:10) 0 0 0 0 0
16-04-2019 19.4 (15:30) 4.9 (00:00) 12.1 8.33 (17:10) 5.28 (16:40) 0.2 0 0.2 0 0
15-04-2019 18.9 (12:30) 8.6 (00:00) 13.8 12.78 (15:40) 8.33 (15:50) 13.2 0 0 2.8 10.4
14-04-2019 21.7 (15:10) 11.5 (00:00) 16.6 7.78 (19:20) 4.72 (19:20) 0 0 0 0 0
13-04-2019 22.1 (16:50) 7.1 (00:00) 14.6 8.06 (18:00) 5 (17:50) 0 0 0 0 0
12-04-2019 17.2 (14:50) 4 (00:00) 10.6 8.61 (19:20) 5.28 (18:10) 0.2 0.2 0 0 0
11-04-2019 12.4 (14:50) 5.8 (00:00) 9.1 9.17 (15:20) 6.39 (16:20) 1.4 0.2 0 0 1.2
10-04-2019 11.5 (16:50) 5.2 (00:00) 8.3 7.78 (09:50) 4.72 (09:40) 10.2 0 9.4 0 0.8
09-04-2019 13.8 (12:50) 5.8 (00:00) 9.8 9.17 (13:50) 6.11 (13:50) 4.2 0 0.2 0.2 3.8
08-04-2019 17.4 (14:10) 6.6 (00:00) 12 11.11 (18:40) 7.5 (18:40) 0.4 0 0.2 0.2 0
07-04-2019 16.9 (15:10) 3.6 (00:00) 10.2 10.83 (17:00) 6.67 (17:00) 3.6 3 0 0 0.6
06-04-2019 13.1 (12:10) 2 (00:00) 7.6 15.83 (17:30) 10.83 (17:30) 6.2 0 0 2.6 3.6
05-04-2019 15.7 (15:40) 3.8 (00:00) 9.7 15.56 (00:40) 7.22 (00:40) 3.8 0 0.2 0 3.6
04-04-2019 13 (14:10) 1 (00:00) 7 18.33 (18:40) 10.28 (18:40) 1 1 0 0 0
03-04-2019 6.5 (15:20) 1.1 (00:00) 3.8 15 (16:10) 9.17 (02:40) 15.8 1.6 4.2 6.6 3.4
02-04-2019 12.9 (15:20) 6.1 (00:00) 9.5 11.11 (12:10) 7.78 (21:00) 1.2 0 0 0 1.2
01-04-2019 18.8 (15:40) 6.5 (00:00) 12.6 8.61 (17:10) 5.83 (17:00) 0.4 0 0 0.4 0
31-03-2019 20.4 (15:10) 7.9 (00:00) 14.1 14.72 (16:10) 9.44 (17:00) 0 0 0 0 0
30-03-2019 20.7 (13:30) 7.2 (00:00) 14 7.5 (17:30) 4.72 (14:00) 0 0 0 0 0
29-03-2019 19.6 (15:30) 4.5 (00:00) 12.1 5.28 (14:30) 3.61 (20:10) 0 0 0 0 0
28-03-2019 17.4 (14:40) 2.8 (00:00) 10.1 9.44 (12:00) 5.56 (13:40) 0 0 0 0 0
27-03-2019 16.4 (13:50) 3.2 (00:00) 9.8 12.78 (00:50) 8.06 (02:10) 0 0 0 0 0
26-03-2019 14.5 (13:20) 5.1 (00:00) 9.8 17.22 (09:00) 11.67 (09:00) 0 0 0 0 0
25-03-2019 15.3 (13:40) 5.5 (00:00) 10.4 13.89 (15:50) 8.33 (15:20) 0 0 0 0 0

Gráficas

Temp. máximas Temp. mínimas Temp. medias Precipitaciones Rachas de viento máximas Velocidades máximas media en intervalos de 10 minutos

Datos horarios

Fecha y hora oficial Temperatura (ºC) Velocidad del viento (km/h) Dirección del viento Racha (km/h) Dirección de racha Precipitación (mm) Presión (hPa) Tendencia (hPa) Humedad (%)
2019-04-23 23:00:00 5.5 4 Oeste 6 Oeste 0 -- -- 99
2019-04-23 22:00:00 5.6 3 Sudoeste 8 Sudoeste 0 -- -- 98
2019-04-23 21:00:00 6.2 3 Sudeste 16 Norte 0.2 -- -- 98
2019-04-23 20:00:00 5.7 13 Noroeste 52 Oeste 2.6 -- -- 98
2019-04-23 19:00:00 7 37 Oeste 54 Noroeste 2 -- -- 91
2019-04-23 18:00:00 11.2 23 Noroeste 37 Noroeste 0 -- -- 84
2019-04-23 17:00:00 14 13 Sudeste 40 Este 0 -- -- 77
2019-04-23 16:00:00 13.5 18 Este 37 Este 0 -- -- 78
2019-04-23 15:00:00 13.6 15 Este 28 Este 0 -- -- 80
2019-04-23 14:00:00 13.3 13 Este 26 Sudeste 0 -- -- 84
2019-04-23 13:00:00 12.3 9 Oeste 22 Oeste 0 -- -- 89
2019-04-23 12:00:00 9.1 16 Oeste 30 Oeste 0 -- -- 96
2019-04-23 11:00:00 9.2 16 Oeste 25 Oeste 0.2 -- -- 97
2019-04-23 10:00:00 10.3 3 Sur 11 Este 0.2 -- -- 97
2019-04-23 09:00:00 9.8 5 Este 10 Sudeste 0.4 -- -- 96
2019-04-23 08:00:00 9.8 0 Calma 17 Este 0.2 -- -- 93
2019-04-23 07:00:00 10.2 6 Sudeste 15 Este 0 -- -- 91
2019-04-23 06:00:00 10.7 3 Sudoeste 19 Sudeste 0 -- -- 89
2019-04-23 05:00:00 11.3 7 Sur 15 Sudeste 0 -- -- 80
2019-04-23 04:00:00 12 15 Sudeste 18 Sudeste 0 -- -- 72
2019-04-23 03:00:00 12.1 9 Oeste 25 Norte 0 -- -- 70
2019-04-23 02:00:00 12.9 10 Noroeste 23 Noroeste 0 -- -- 66
2019-04-23 01:00:00 13.7 7 Norte 19 Noroeste 0 -- -- 65
2019-04-23 00:00:00 14.5 6 Este 23 Este 0 -- -- 59
2019-04-22 23:00:00 15.2 14 Sudeste 24 Sudeste 0 -- -- 56
2019-04-22 22:00:00 15.4 12 Este 28 Sur 0 -- -- 54
2019-04-22 21:00:00 15.3 6 Sudeste 24 Sudeste 0 -- -- 55
2019-04-22 20:00:00 15.8 13 Sudeste 23 Sudeste 0 -- -- 59
2019-04-22 19:00:00 17.2 15 Sudeste 27 Sudeste 0 -- -- 57
2019-04-22 18:00:00 19 17 Sudeste 26 Sudeste 0 -- -- 54
2019-04-22 17:00:00 17.9 3 Sudeste 21 Oeste 0 -- -- 66
2019-04-22 16:00:00 19.9 8 Sudeste 34 Noroeste 0 -- -- 47
2019-04-22 15:00:00 21.1 12 Sudeste 28 Este 0 -- -- 52
2019-04-22 14:00:00 21 13 Este 23 Este 0 -- -- 50
2019-04-22 13:00:00 19.2 5 Sudeste 14 Sudeste 0 -- -- 58
2019-04-22 12:00:00 16.6 6 Sudeste 15 Sudeste 0 -- -- 65
2019-04-22 11:00:00 13.1 0 Calma 6 Noroeste 0 -- -- 79
2019-04-22 10:00:00 9.2 2 Oeste 8 Oeste 0 -- -- 99
2019-04-22 09:00:00 7.7 3 Este 5 Este 0 -- -- 100
2019-04-22 08:00:00 6.8 3 Este 5 Oeste 0 -- -- 99
2019-04-22 07:00:00 7 3 Este 5 Sudeste 0 -- -- 97
2019-04-22 06:00:00 7.5 3 Sudoeste 5 Sudoeste 0 -- -- 96
2019-04-22 05:00:00 7.9 2 Oeste 5 Oeste 0 -- -- 96
2019-04-22 04:00:00 8.6 0 Calma 3 Oeste 0 -- -- 94
2019-04-22 03:00:00 8.8 0 Calma 5 Sudoeste 0 -- -- 94
2019-04-22 02:00:00 9 0 Calma 4 Sudoeste 0 -- -- 94
2019-04-22 01:00:00 9 0 Calma 9 Este 0 -- -- 95
2019-04-22 00:00:00 9 8 Sudeste 22 Este 0 -- -- 93
2019-04-21 23:00:00 9.6 9 Sudeste 32 Sudeste 0 -- -- 90
2019-04-21 22:00:00 11.1 12 Este 25 Este 0 -- -- 81
2019-04-21 21:00:00 13.2 14 Este 31 Este 0 -- -- 66
2019-04-21 20:00:00 15.6 19 Este 35 Este 0 -- -- 56
2019-04-21 19:00:00 16.7 15 Este 28 Sudeste 0 -- -- 58
2019-04-21 18:00:00 16.9 9 Sudeste 32 Este 0 -- -- 54
2019-04-21 17:00:00 19.1 7 Sudeste 19 Este 0 -- -- 47
2019-04-21 16:00:00 17.1 9 Noroeste 22 Noroeste 0 -- -- 59
2019-04-21 15:00:00 18 9 Noroeste 16 Oeste 0 -- -- 54
2019-04-21 14:00:00 16.1 7 Oeste 17 Oeste 0 -- -- 57
2019-04-21 13:00:00 15.7 10 Noroeste 14 Oeste 0 -- -- 61
2019-04-21 12:00:00 14.7 3 Este 10 Oeste 0 -- -- 72
2019-04-21 11:00:00 11.7 5 Oeste 10 Oeste 0 -- -- 75
2019-04-21 10:00:00 11.1 4 Sudeste 19 Sudoeste 0 -- -- 74
2019-04-21 09:00:00 9.9 6 Sudoeste 11 Oeste 0 -- -- 72
2019-04-21 08:00:00 10 6 Oeste 10 Noroeste 0 -- -- 71
2019-04-21 07:00:00 9.7 5 Oeste 9 Sudoeste 0 -- -- 74
2019-04-21 06:00:00 10 3 Oeste 8 Noroeste 0 -- -- 71
2019-04-21 05:00:00 10.1 8 Noroeste 11 Noroeste 0 -- -- 72
2019-04-21 04:00:00 10.3 8 Oeste 10 Oeste 0 -- -- 70
2019-04-21 03:00:00 10.6 5 Oeste 10 Oeste 0 -- -- 70
2019-04-21 02:00:00 10.7 5 Noroeste 9 Sudoeste 0 -- -- 67
2019-04-21 01:00:00 10.5 3 Sudeste 6 Sudeste 0 -- -- 73
2019-04-21 00:00:00 11.2 7 Sudeste 15 Sudeste 0 -- -- 68
2019-04-20 23:00:00 12 10 Sudeste 18 Sudeste 0 -- -- 66
2019-04-20 22:00:00 12.6 14 Sudeste 25 Sudeste 0 -- -- 67
2019-04-20 21:00:00 14.5 9 Sudeste 23 Sudeste 0 -- -- 59
2019-04-20 20:00:00 16.9 17 Este 33 Este 0 -- -- 44
2019-04-20 19:00:00 18.8 22 Este 42 Este 0 -- -- 38
2019-04-20 18:00:00 20.3 28 Este 48 Este 0 -- -- 38
2019-04-20 17:00:00 21.3 26 Este 43 Este 0 -- -- 39
2019-04-20 16:00:00 21.3 26 Este 45 Este 0 -- -- 43
2019-04-20 15:00:00 21.4 26 Este 47 Este 0 -- -- 47
2019-04-20 14:00:00 20.8 28 Este 51 Este 0 -- -- 45
2019-04-20 13:00:00 21.2 12 Este 24 Sudeste 0 -- -- 47
2019-04-20 12:00:00 19.1 9 Sudeste 17 Este 0 -- -- 60
2019-04-20 11:00:00 16 3 Este 10 Este 0 -- -- 78
2019-04-20 10:00:00 11.9 4 Sudoeste 6 Oeste 0 -- -- 79
2019-04-20 09:00:00 9.9 6 Oeste 7 Oeste 0 -- -- 87
2019-04-20 08:00:00 9.3 0 Calma 5 Sudoeste 0 -- -- 90
2019-04-20 07:00:00 9 4 Sudoeste 7 Sudoeste 0 -- -- 92
2019-04-20 06:00:00 9 6 Este 8 Sudeste 0 -- -- 92
2019-04-20 05:00:00 9.2 4 Este 7 Sudeste 0 -- -- 91
2019-04-20 04:00:00 9.9 4 Nordeste 6 Nordeste 0 -- -- 89
2019-04-20 03:00:00 10.1 0 Calma 6 Sudoeste 0 -- -- 88
2019-04-20 02:00:00 10.7 3 Oeste 10 Este 0 -- -- 85
2019-04-20 01:00:00 11 9 Sudeste 13 Sur 0 -- -- 84
2019-04-20 00:00:00 11.6 3 Sur 7 Sudeste 0 -- -- 80
2019-04-19 23:00:00 12.6 4 Sudeste 7 Sur 0 -- -- 74
2019-04-19 22:00:00 13.1 5 Sudoeste 15 Sudeste 0 -- -- 70
2019-04-19 21:00:00 14 8 Sur 22 Este 0 -- -- 69
2019-04-19 20:00:00 16.2 11 Este 27 Este 0 -- -- 68
2019-04-19 19:00:00 17.7 13 Este 41 Este 0 -- -- 64
2019-04-19 18:00:00 16.2 11 Sudeste 48 Este 0 -- -- 70
2019-04-19 17:00:00 16.8 15 Sudeste 34 Este 0 -- -- 73
2019-04-19 16:00:00 16.1 14 Oeste 26 Oeste 0 -- -- 82
2019-04-19 15:00:00 15 13 Sudoeste 23 Oeste 0 -- -- 83
2019-04-19 14:00:00 15.1 12 Noroeste 19 Noroeste 0 -- -- 84
2019-04-19 13:00:00 15.6 5 Norte 17 Sudeste 0 -- -- 82
2019-04-19 12:00:00 14 5 Este 11 Este 0 -- -- 94
2019-04-19 11:00:00 12.4 4 Este 9 Este 0 -- -- 100
2019-04-19 10:00:00 11.2 0 Calma 5 Sur 0 -- -- 100
2019-04-19 09:00:00 10.1 2 Sur 11 Sudeste 0 -- -- 100
2019-04-19 08:00:00 9.8 8 Sudeste 29 Sudeste 0 -- -- 100
2019-04-19 07:00:00 9.8 18 Sudeste 31 Este 0 -- -- 100
2019-04-19 06:00:00 9.7 8 Sudeste 35 Este 0 -- -- 100
2019-04-19 05:00:00 9.7 10 Sudeste 20 Este 0.4 -- -- 100
2019-04-19 04:00:00 9.6 10 Sudeste 20 Sudeste 1.2 -- -- 100
2019-04-19 03:00:00 9.7 9 Sudeste 24 Sudeste 2.6 -- -- 100
2019-04-19 02:00:00 9.6 11 Sudeste 18 Sudeste 1.6 -- -- 100
2019-04-19 01:00:00 9.4 8 Este 20 Sudeste 2 -- -- 100
2019-04-19 00:00:00 9.4 10 Sudeste 19 Este 0.6 -- -- 100
2019-04-18 23:00:00 9.4 9 Sudeste 13 Este 0.6 -- -- 100
2019-04-18 22:00:00 9.6 9 Sudeste 25 Sudeste 0.4 -- -- 100
2019-04-18 21:00:00 10.1 12 Sudeste 22 Sudeste 2.6 -- -- 99
2019-04-18 20:00:00 11.3 4 Sur 8 Sudeste 1.2 -- -- 97
2019-04-18 19:00:00 11.9 3 Sudoeste 7 Oeste 0.6 -- -- 95
2019-04-18 18:00:00 12.9 2 Norte 9 Este 0 -- -- 93
2019-04-18 17:00:00 13.1 4 Sudeste 16 Sudeste 0.2 -- -- 97
2019-04-18 16:00:00 12 8 Sudeste 14 Sudeste 1 -- -- 96
2019-04-18 15:00:00 11.9 7 Sudeste 20 Sudeste 1 -- -- 93
2019-04-18 14:00:00 14.4 12 Este 22 Este 0 -- -- 76
2019-04-18 13:00:00 14.8 5 Este 13 Este 0 -- -- 77
2019-04-18 12:00:00 12.3 2 Este 16 Este 0 -- -- 85
2019-04-18 11:00:00 11 6 Sudeste 15 Sudeste 0 -- -- 91
2019-04-18 10:00:00 10.4 7 Sur 10 Sur 0 -- -- 93
2019-04-18 09:00:00 10 8 Este 12 Este 0 -- -- 93
2019-04-18 08:00:00 9.8 2 Sur 9 Norte 0 -- -- 90
2019-04-18 07:00:00 9.8 8 Oeste 21 Sudoeste 0 -- -- 88
2019-04-18 06:00:00 10.1 7 Oeste 15 Sudoeste 0 -- -- 86
2019-04-18 05:00:00 10.2 3 Sudeste 9 Sudeste 0 -- -- 86
2019-04-18 04:00:00 11 3 Norte 14 Oeste 0 -- -- 81
2019-04-18 03:00:00 11.1 11 Oeste 19 Noroeste 0 -- -- 77
2019-04-18 02:00:00 11.7 22 Noroeste 43 Noroeste 0 -- -- 75
2019-04-18 01:00:00 13.2 23 Noroeste 34 Noroeste 0 -- -- 73
2019-04-18 00:00:00 17.7 17 Norte 35 Norte 0 -- -- 54
2019-04-17 23:00:00 18.8 13 Norte 35 Norte 0 -- -- 45
2019-04-17 22:00:00 19.1 15 Norte 27 Norte 0 -- -- 44
2019-04-17 21:00:00 19.1 12 Este 19 Nordeste 0 -- -- 44
2019-04-17 20:00:00 20.4 8 Oeste 28 Este 0 -- -- 41
2019-04-17 19:00:00 22.8 7 Este 18 Nordeste 0 -- -- 44
2019-04-17 18:00:00 22.4 5 Norte 23 Noroeste 0 -- -- 42
2019-04-17 17:00:00 22.9 11 Nordeste 32 Oeste 0 -- -- 42
2019-04-17 16:00:00 23.7 15 Oeste 31 Oeste 0 -- -- 33
2019-04-17 15:00:00 24.2 15 Oeste 28 Oeste 0 -- -- 38
2019-04-17 14:00:00 24.2 5 Norte 19 Sudeste 0 -- -- 46
2019-04-17 13:00:00 22.6 7 Sur 17 Este 0 -- -- 44
2019-04-17 12:00:00 18.9 10 Este 22 Este 0 -- -- 58
2019-04-17 11:00:00 15.4 9 Sur 24 Este 0 -- -- 63
2019-04-17 10:00:00 14.7 13 Sudeste 15 Sudeste 0 -- -- 59
2019-04-17 09:00:00 13.6 5 Nordeste 13 Nordeste 0 -- -- 59
2019-04-17 08:00:00 12.8 4 Sudeste 15 Sudeste 0 -- -- 67
2019-04-17 07:00:00 12.9 9 Sudeste 15 Sudeste 0 -- -- 70
2019-04-17 06:00:00 12.7 9 Sudeste 17 Sudeste 0 -- -- 67
2019-04-17 05:00:00 11.2 9 Este 16 Sudeste 0 -- -- 87
2019-04-17 04:00:00 11.1 8 Este 14 Sudeste 0 -- -- 92
2019-04-17 03:00:00 10.8 9 Sudeste 14 Sudeste 0 -- -- 96
2019-04-17 02:00:00 11 4 Sudeste 13 Nordeste 0 -- -- 96
2019-04-17 01:00:00 11.3 5 Sudeste 15 Sudoeste 0 -- -- 94
2019-04-17 00:00:00 11.8 5 Este 6 Este 0 -- -- 91
2019-04-16 23:00:00 12.4 0 Calma 7 Sudoeste 0 -- -- 88
2019-04-16 22:00:00 12.4 8 Oeste 13 Oeste 0 -- -- 88
2019-04-16 21:00:00 13.5 3 Sudoeste 9 Oeste 0 -- -- 83
2019-04-16 20:00:00 15.3 4 Oeste 9 Oeste 0 -- -- 77
2019-04-16 19:00:00 16.2 5 Oeste 13 Oeste 0 -- -- 73
2019-04-16 18:00:00 17.1 5 Sudeste 30 Este 0 -- -- 70
2019-04-16 17:00:00 19.1 14 Este 30 Este 0 -- -- 65
2019-04-16 16:00:00 18.5 14 Este 25 Este 0 -- -- 67
2019-04-16 15:00:00 18.6 8 Sudeste 21 Sudeste 0 -- -- 71
2019-04-16 14:00:00 17.6 7 Sudeste 29 Sudeste 0 -- -- 71
2019-04-16 13:00:00 16.3 13 Este 28 Este 0 -- -- 73
2019-04-16 12:00:00 13.9 9 Sudeste 19 Sudeste 0 -- -- 81
2019-04-16 11:00:00 11.3 6 Sur 18 Sudeste 0 -- -- 100
2019-04-16 10:00:00 8.5 8 Sudeste 14 Sudeste 0 -- -- 100
2019-04-16 09:00:00 6.4 5 Sudeste 8 Sudeste 0 -- -- 100
2019-04-16 08:00:00 5.2 5 Sudeste 10 Sudeste 0.2 -- -- 100
2019-04-16 07:00:00 5.5 2 Este 12 Sudeste 0 -- -- 100
2019-04-16 06:00:00 5.7 3 Sudeste 14 Sudeste 0 -- -- 100
2019-04-16 05:00:00 6.6 10 Sudeste 13 Sudeste 0 -- -- 100
2019-04-16 04:00:00 7.3 0 Calma 4 Este 0 -- -- 100
2019-04-16 03:00:00 7.8 2 Noroeste 5 Sudeste 0 -- -- 100
2019-04-16 02:00:00 8.1 0 Calma 8 Noroeste 0 -- -- 99
2019-04-16 01:00:00 8.5 3 Oeste 11 Noroeste 0 -- -- 100
2019-04-16 00:00:00 8.6 10 Noroeste 22 Oeste 0.6 -- -- 100
2019-04-15 23:00:00 8.8 9 Noroeste 26 Oeste 3 -- -- 100
2019-04-15 22:00:00 9 19 Noroeste 27 Oeste 2.6 -- -- 100
2019-04-15 21:00:00 9.2 15 Oeste 35 Norte 1.8 -- -- 100
2019-04-15 20:00:00 10 16 Noroeste 24 Noroeste 1.2 -- -- 100
2019-04-15 19:00:00 10.7 13 Noroeste 21 Oeste 1.2 -- -- 100
2019-04-15 18:00:00 10.7 12 Oeste 37 Noroeste 0 -- -- 96
2019-04-15 17:00:00 11.4 23 Noroeste 46 Noroeste 0 -- -- 92
2019-04-15 16:00:00 12.5 21 Noroeste 46 Noroeste 0 -- -- 96
2019-04-15 15:00:00 15.8 5 Oeste 24 Norte 2 -- -- 98
2019-04-15 14:00:00 14.8 22 Noroeste 36 Noroeste 0.8 -- -- 92
2019-04-15 13:00:00 18.2 28 Oeste 42 Oeste 0 -- -- 68
2019-04-15 12:00:00 18.3 15 Sudeste 25 Este 0 -- -- 64
2019-04-15 11:00:00 17 15 Sudeste 22 Sur 0 -- -- 66
2019-04-15 10:00:00 16.3 3 Este 13 Este 0 -- -- 65
2019-04-15 09:00:00 15.4 5 Este 17 Sudoeste 0 -- -- 71
2019-04-15 08:00:00 14.8 7 Este 17 Sudeste 0 -- -- 74
2019-04-15 07:00:00 14.9 13 Sudeste 21 Sudoeste 0 -- -- 75
2019-04-15 06:00:00 13.2 5 Sur 14 Sur 0 -- -- 88
2019-04-15 05:00:00 12.5 4 Noroeste 26 Sudoeste 0 -- -- 93
2019-04-15 04:00:00 12 6 Este 14 Nordeste 0 -- -- 95
2019-04-15 03:00:00 12.4 4 Oeste 14 Oeste 0 -- -- 95
2019-04-15 02:00:00 12.4 4 Este 9 Nordeste 0 -- -- 93
2019-04-15 01:00:00 12.7 4 Este 19 Sudeste 0 -- -- 91
2019-04-15 00:00:00 13.4 14 Sudeste 23 Sudeste 0 -- -- 90
2019-04-14 23:00:00 13.9 9 Sudeste 20 Sudeste 0 -- -- 87
2019-04-14 22:00:00 14.3 11 Sudeste 22 Sudeste 0 -- -- 84
2019-04-14 21:00:00 15.8 11 Sudeste 24 Este 0 -- -- 78
2019-04-14 20:00:00 17.6 14 Este 28 Este 0 -- -- 72
2019-04-14 19:00:00 20.1 10 Este 22 Este 0 -- -- 65
2019-04-14 18:00:00 20.6 3 Sudoeste 20 Sur 0 -- -- 64
2019-04-14 17:00:00 21.2 4 Noroeste 21 Oeste 0 -- -- 60
2019-04-14 16:00:00 20.7 10 Noroeste 24 Noroeste 0 -- -- 61
2019-04-14 15:00:00 21.6 12 Norte 24 Noroeste 0 -- -- 57
2019-04-14 14:00:00 20 9 Noroeste 18 Noroeste 0 -- -- 62
2019-04-14 13:00:00 18.9 10 Noroeste 19 Noroeste 0 -- -- 62
2019-04-14 12:00:00 19.2 5 Sudeste 10 Sudeste 0 -- -- 62
2019-04-14 11:00:00 15.5 0 Calma 4 Sur 0 -- -- 72
2019-04-14 10:00:00 13.1 0 Calma 3 Nordeste 0 -- -- 73
2019-04-14 09:00:00 11.9 0 Calma 6 Oeste 0 -- -- 70
2019-04-14 08:00:00 11.6 0 Calma 6 Sudoeste 0 -- -- 70
2019-04-14 07:00:00 12.3 3 Oeste 8 Oeste 0 -- -- 66
2019-04-14 06:00:00 12.1 2 Oeste 6 Este 0 -- -- 69
2019-04-14 05:00:00 12.8 5 Este 9 Sudeste 0 -- -- 65
2019-04-14 04:00:00 13.1 5 Oeste 11 Noroeste 0 -- -- 64
2019-04-14 03:00:00 13.4 5 Oeste 8 Noroeste 0 -- -- 60
2019-04-14 02:00:00 13.4 3 Oeste 5 Oeste 0 -- -- 60
2019-04-14 01:00:00 13.4 0 Calma 4 Este 0 -- -- 59
2019-04-14 00:00:00 13.4 3 Sudoeste 7 Sudeste 0 -- -- 61
2019-04-13 23:00:00 13.8 5 Sur 10 Sudeste 0 -- -- 57
2019-04-13 22:00:00 14.6 4 Sur 13 Sudeste 0 -- -- 52
2019-04-13 21:00:00 15.2 11 Sudeste 14 Sudeste 0 -- -- 50
2019-04-13 20:00:00 16.3 4 Sudoeste 20 Oeste 0 -- -- 53
2019-04-13 19:00:00 17.2 15 Oeste 23 Oeste 0 -- -- 53
2019-04-13 18:00:00 20.5 18 Oeste 29 Oeste 0 -- -- 39
2019-04-13 17:00:00 21.8 12 Noroeste 22 Noroeste 0 -- -- 41
2019-04-13 16:00:00 21.6 10 Noroeste 23 Oeste 0 -- -- 40
2019-04-13 15:00:00 20.7 12 Noroeste 19 Noroeste 0 -- -- 42
2019-04-13 14:00:00 20.3 11 Noroeste 16 Oeste 0 -- -- 42
2019-04-13 13:00:00 20.6 4 Sudeste 11 Sudeste 0 -- -- 44
2019-04-13 12:00:00 18.2 4 Sudeste 9 Sudeste 0 -- -- 56
2019-04-13 11:00:00 14.3 2 Sudeste 7 Este 0 -- -- 67
2019-04-13 10:00:00 10.3 2 Este 7 Nordeste 0 -- -- 75
2019-04-13 09:00:00 8.2 0 Calma 6 Este 0 -- -- 78
2019-04-13 08:00:00 7.4 2 Este 5 Sudeste 0 -- -- 82
2019-04-13 07:00:00 7.2 4 Este 6 Este 0 -- -- 85
2019-04-13 06:00:00 7.4 2 Este 5 Sudeste 0 -- -- 86
2019-04-13 05:00:00 7.7 0 Calma 4 Oeste 0 -- -- 93
2019-04-13 04:00:00 7.3 0 Calma 5 Nordeste 0 -- -- 96
2019-04-13 03:00:00 7.2 0 Calma 4 Este 0 -- -- 97
2019-04-13 02:00:00 7.7 0 Calma 4 Oeste 0 -- -- 96
2019-04-13 01:00:00 7.6 3 Oeste 5 Sudoeste 0 -- -- 97
2019-04-13 00:00:00 7.5 2 Sudeste 8 Sudeste 0 -- -- 96
2019-04-12 23:00:00 8.1 8 Sudeste 10 Sudeste 0 -- -- 93
2019-04-12 22:00:00 8.6 4 Sudeste 17 Este 0 -- -- 91
2019-04-12 21:00:00 9.9 14 Sudeste 26 Sudeste 0 -- -- 85
2019-04-12 20:00:00 12.9 13 Sudeste 31 Este 0 -- -- 75
2019-04-12 19:00:00 14.5 17 Sudeste 29 Sudeste 0 -- -- 71
2019-04-12 18:00:00 16.1 17 Este 25 Este 0 -- -- 64
2019-04-12 17:00:00 17 12 Este 26 Este 0 -- -- 57
2019-04-12 16:00:00 17.1 15 Sudeste 28 Sudeste 0 -- -- 62
2019-04-12 15:00:00 17.1 14 Este 26 Sudeste 0 -- -- 58
2019-04-12 14:00:00 16.1 5 Sudeste 13 Noroeste 0 -- -- 66
2019-04-12 13:00:00 14.7 7 Sudeste 15 Sudeste 0 -- -- 67
2019-04-12 12:00:00 11.7 4 Este 8 Nordeste 0 -- -- 88
2019-04-12 11:00:00 8.5 2 Noroeste 6 Sudoeste 0 -- -- 100
2019-04-12 10:00:00 6.3 2 Este 8 Este 0 -- -- 100
2019-04-12 09:00:00 4.6 4 Oeste 9 Sudeste 0 -- -- 100
2019-04-12 08:00:00 4 6 Sudeste 10 Este 0 -- -- 100
2019-04-12 07:00:00 4.4 2 Este 9 Sudeste 0 -- -- 100
2019-04-12 06:00:00 5 0 Calma 5 Oeste 0.2 -- -- 100
2019-04-12 05:00:00 5.4 0 Calma 8 Oeste 0 -- -- 100
2019-04-12 04:00:00 5.8 2 Oeste 4 Sudoeste 0 -- -- 100
2019-04-12 03:00:00 6.3 4 Sudeste 9 Sudeste 0 -- -- 100
2019-04-12 02:00:00 6.7 5 Sudeste 7 Sudeste 0 -- -- 100
2019-04-12 01:00:00 7.1 0 Calma 5 Sudoeste 0 -- -- 100
2019-04-12 00:00:00 7.4 0 Calma 12 Oeste 0 -- -- 100
2019-04-11 23:00:00 7.5 7 Oeste 12 Oeste 0 -- -- 100
2019-04-11 22:00:00 7.6 10 Oeste 14 Oeste 0 -- -- 100
2019-04-11 21:00:00 7.5 9 Oeste 15 Noroeste 0.6 -- -- 100
2019-04-11 20:00:00 7.9 11 Noroeste 19 Noroeste 0.6 -- -- 97
2019-04-11 19:00:00 8.6 9 Norte 22 Noroeste 0 -- -- 94
2019-04-11 18:00:00 8.7 16 Oeste 28 Noroeste 0 -- -- 89
2019-04-11 17:00:00 9.8 12 Norte 31 Noroeste 0 -- -- 82
2019-04-11 16:00:00 10.7 18 Noroeste 33 Norte 0 -- -- 77
2019-04-11 15:00:00 12.3 14 Noroeste 30 Noroeste 0 -- -- 74
2019-04-11 14:00:00 10 19 Norte 28 Noroeste 0 -- -- 83
2019-04-11 13:00:00 8.6 19 Noroeste 30 Norte 0 -- -- 86
2019-04-11 12:00:00 9 18 Norte 31 Norte 0 -- -- 89
2019-04-11 11:00:00 8.5 17 Norte 24 Norte 0 -- -- 89
2019-04-11 10:00:00 7.2 12 Noroeste 20 Noroeste 0 -- -- 93
2019-04-11 09:00:00 6.3 15 Oeste 24 Noroeste 0 -- -- 95
2019-04-11 08:00:00 5.8 6 Oeste 13 Noroeste 0 -- -- 97
2019-04-11 07:00:00 5.9 8 Oeste 12 Oeste 0 -- -- 98
2019-04-11 06:00:00 6.4 3 Oeste 11 Noroeste 0 -- -- 98
2019-04-11 05:00:00 6.4 4 Oeste 15 Noroeste 0.2 -- -- 99
2019-04-11 04:00:00 6.4 8 Oeste 12 Oeste 0 -- -- 99
2019-04-11 03:00:00 6.3 6 Oeste 13 Noroeste 0 -- -- 100
2019-04-11 02:00:00 6.3 9 Noroeste 14 Noroeste 0 -- -- 99
2019-04-11 01:00:00 6.7 8 Noroeste 14 Noroeste 0 -- -- 97
2019-04-11 00:00:00 7.2 4 Norte 14 Noroeste 0.8 -- -- 96
2019-04-10 23:00:00 7.4 9 Noroeste 13 Noroeste 0 -- -- 93
2019-04-10 22:00:00 7.6 9 Noroeste 15 Noroeste 0 -- -- 92
2019-04-10 21:00:00 8.1 10 Noroeste 22 Norte 0 -- -- 90
2019-04-10 20:00:00 8.9 9 Oeste 20 Noroeste 0 -- -- 88
2019-04-10 19:00:00 9.7 10 Noroeste 26 Oeste 0 -- -- 86
2019-04-10 18:00:00 9.9 15 Oeste 26 Noroeste 0 -- -- 90
2019-04-10 17:00:00 10.7 15 Noroeste 22 Noroeste 0 -- -- 86
2019-04-10 16:00:00 9.4 11 Noroeste 17 Oeste 0 -- -- 94
2019-04-10 15:00:00 10.3 6 Noroeste 12 Noroeste 0 -- -- 91
2019-04-10 14:00:00 9.5 5 Sudoeste 12 Este 0 -- -- 90
2019-04-10 13:00:00 8.7 6 Sudeste 16 Sudeste 0 -- -- 98
2019-04-10 12:00:00 7.6 10 Sudeste 15 Sudeste 1 -- -- 100
2019-04-10 11:00:00 6.2 10 Sudeste 22 Sudeste 0.4 -- -- 100
2019-04-10 10:00:00 5.2 15 Sudeste 28 Sudeste 2.6 -- -- 100
2019-04-10 09:00:00 5.5 12 Sudeste 21 Sudeste 2.6 -- -- 100
2019-04-10 08:00:00 5.5 0 Calma 6 Sudeste 2.4 -- -- 100
2019-04-10 07:00:00 5.5 7 Este 9 Este 0.4 -- -- 100
2019-04-10 06:00:00 5.4 6 Sudeste 16 Oeste 0 -- -- 100
2019-04-10 05:00:00 5.4 6 Oeste 11 Oeste 0 -- -- 100
2019-04-10 04:00:00 6 6 Sudeste 12 Sudeste 0 -- -- 100
2019-04-10 03:00:00 6.2 0 Calma 5 Este 0 -- -- 100
2019-04-10 02:00:00 6.3 2 Nordeste 7 Sudeste 0 -- -- 100
2019-04-10 01:00:00 6.7 7 Sudeste 12 Sudoeste 0 -- -- 99
2019-04-10 00:00:00 7 10 Sudoeste 27 Oeste 1.2 -- -- 99
2019-04-09 23:00:00 7.2 5 Este 13 Sudeste 0.8 -- -- 98
2019-04-09 22:00:00 7.5 9 Este 19 Sudoeste 1.6 -- -- 95
2019-04-09 21:00:00 -- 5 Sudoeste 22 Sudeste 0.2 -- -- --
2019-04-09 20:00:00 10.9 13 Este 27 Este 0 -- -- 74
2019-04-09 19:00:00 11.6 14 Este 30 Nordeste 0 -- -- 73
2019-04-09 18:00:00 13.7 16 Este 29 Este 0 -- -- 70
2019-04-09 17:00:00 12.9 10 Sudeste 15 Sudeste 0 -- -- 64
2019-04-09 16:00:00 12.8 7 Sudeste 15 Sudeste 0 -- -- 73
2019-04-09 15:00:00 10.3 5 Este 27 Oeste 0.2 -- -- 89
2019-04-09 14:00:00 10.4 19 Oeste 33 Oeste 0 -- -- 82
2019-04-09 13:00:00 13.1 14 Oeste 23 Oeste 0 -- -- 64
2019-04-09 12:00:00 12.6 6 Sur 12 Sudeste 0.2 -- -- 63
2019-04-09 11:00:00 11.4 6 Sudeste 14 Sur 0 -- -- 71
2019-04-09 10:00:00 9.9 5 Sudoeste 20 Sudeste 0 -- -- 74
2019-04-09 09:00:00 8.3 8 Sur 21 Sudeste 0 -- -- 73
2019-04-09 08:00:00 8.1 2 Este 12 Este 0 -- -- 70
2019-04-09 07:00:00 8.4 10 Sudeste 22 Sur 0 -- -- 68
2019-04-09 06:00:00 7.9 8 Este 13 Nordeste 0 -- -- 70
2019-04-09 05:00:00 8 4 Oeste 8 Sudeste 0 -- -- 72
2019-04-09 04:00:00 6.6 7 Este 19 Este 0 -- -- 88
2019-04-09 03:00:00 6.1 9 Sudeste 27 Este 0 -- -- 92
2019-04-09 02:00:00 5.8 7 Este 21 Sudeste 0 -- -- 90
2019-04-09 01:00:00 6.8 15 Sudeste 24 Sudeste 0 -- -- 87
2019-04-09 00:00:00 6.6 15 Este 22 Sudeste 0 -- -- 87
2019-04-08 23:00:00 7.4 12 Sudeste 17 Sudeste 0 -- -- 88
2019-04-08 22:00:00 8.3 4 Sudoeste 35 Noroeste 0 -- -- 85
2019-04-08 21:00:00 8.8 7 Sudeste 37 Este 0 -- -- 78
2019-04-08 20:00:00 9.7 15 Este 38 Este 0 -- -- 74
2019-04-08 19:00:00 11.8 18 Este 40 Este 0 -- -- 70
2019-04-08 18:00:00 13 21 Este 34 Este 0 -- -- 72
2019-04-08 17:00:00 11.3 7 Sudeste 36 Nordeste 0.2 -- -- 81
2019-04-08 16:00:00 13.1 9 Sudeste 37 Este 0 -- -- 69
2019-04-08 15:00:00 15.2 12 Este 30 Este 0 -- -- 69
2019-04-08 14:00:00 16.9 11 Este 23 Este 0 -- -- 56
2019-04-08 13:00:00 13.5 5 Oeste 19 Oeste 0 -- -- 67
2019-04-08 12:00:00 12 5 Oeste 15 Oeste 0 -- -- 72
2019-04-08 11:00:00 11 4 Sudeste 8 Sudeste 0.2 -- -- 92
2019-04-08 10:00:00 9.1 5 Noroeste 12 Noroeste 0 -- -- 90
2019-04-08 09:00:00 8.6 10 Noroeste 15 Norte 0 -- -- 89
2019-04-08 08:00:00 8.3 9 Noroeste 18 Noroeste 0 -- -- 91
2019-04-08 07:00:00 8.4 16 Noroeste 28 Oeste 0 -- -- 84
2019-04-08 06:00:00 8.7 16 Oeste 22 Oeste 0 -- -- 81
2019-04-08 05:00:00 9.3 5 Sudoeste 8 Oeste 0 -- -- 75
2019-04-08 04:00:00 9.2 3 Sur 18 Sudeste 0 -- -- 76
2019-04-08 03:00:00 8.8 12 Sudeste 17 Sudeste 0 -- -- 80
2019-04-08 02:00:00 8.9 13 Este 21 Este 0 -- -- 82
2019-04-08 01:00:00 8.7 8 Oeste 23 Sudoeste 0 -- -- 81
2019-04-08 00:00:00 7.2 4 Noroeste 12 Noroeste 0 -- -- 92
2019-04-07 23:00:00 6.8 5 Sudoeste 19 Este 0 -- -- 94
2019-04-07 22:00:00 7.1 9 Este 22 Este 0.6 -- -- 94
2019-04-07 21:00:00 8.4 8 Sudeste 17 Sudeste 0 -- -- 84
2019-04-07 20:00:00 9.7 8 Sudeste 26 Este 0 -- -- 75
2019-04-07 19:00:00 10.9 12 Sudeste 39 Este 0 -- -- 68
2019-04-07 18:00:00 12.8 18 Este 37 Este 0 -- -- 61
2019-04-07 17:00:00 14.2 24 Este 39 Este 0 -- -- 59
2019-04-07 16:00:00 14.7 17 Este 31 Sudeste 0 -- -- 56
2019-04-07 15:00:00 16.4 5 Este 17 Este 0 -- -- 49
2019-04-07 14:00:00 14.2 4 Este 19 Noroeste 0 -- -- 51
2019-04-07 13:00:00 13.2 9 Norte 24 Norte 0 -- -- 52
2019-04-07 12:00:00 11.5 9 Noroeste 26 Norte 0 -- -- 55
2019-04-07 11:00:00 9.7 16 Oeste 32 Oeste 0 -- -- 60
2019-04-07 10:00:00 7.5 14 Noroeste 25 Noroeste 0 -- -- 71
2019-04-07 09:00:00 6.2 17 Noroeste 25 Noroeste 0 -- -- 78
2019-04-07 08:00:00 5.6 13 Noroeste 24 Norte 0 -- -- 80
2019-04-07 07:00:00 5.6 12 Noroeste 25 Oeste 0 -- -- 82
2019-04-07 06:00:00 5 15 Noroeste 33 Noroeste 0.2 -- -- 88
2019-04-07 05:00:00 5 20 Noroeste 30 Noroeste 0 -- -- 89
2019-04-07 04:00:00 3.8 5 Norte 18 Noroeste 0.2 -- -- 97
2019-04-07 03:00:00 3.6 4 Nordeste 20 Noroeste 0.8 -- -- 97
2019-04-07 02:00:00 4.1 13 Norte 30 Oeste 1 -- -- 94
2019-04-07 01:00:00 4.2 14 Oeste 34 Norte 0.8 -- -- 96
2019-04-07 00:00:00 4.1 15 Noroeste 30 Noroeste 0.8 -- -- 98
2019-04-06 23:00:00 4.5 19 Noroeste 33 Noroeste 0.2 -- -- 98
2019-04-06 22:00:00 4.7 13 Norte 27 Oeste 0.2 -- -- 98
2019-04-06 21:00:00 5.2 26 Noroeste 37 Noroeste 0.2 -- -- 97
2019-04-06 20:00:00 6.1 8 Este 40 Oeste 1.2 -- -- 97
2019-04-06 19:00:00 5.4 5 Sudeste 33 Oeste 1 -- -- 96
2019-04-06 18:00:00 5 26 Oeste 57 Oeste 2.4 -- -- 91
2019-04-06 17:00:00 9.1 18 Norte 35 Norte 0.2 -- -- 76
2019-04-06 16:00:00 10.6 21 Oeste 30 Norte 0 -- -- 59
2019-04-06 15:00:00 12.7 8 Norte 26 Oeste 0 -- -- 48
2019-04-06 14:00:00 12 19 Sudoeste 30 Sudoeste 0 -- -- 46
2019-04-06 13:00:00 11.6 9 Oeste 26 Sudoeste 0 -- -- 47
2019-04-06 12:00:00 12.4 11 Sudoeste 29 Sur 0 -- -- 54
2019-04-06 11:00:00 9.2 8 Sudeste 35 Sudoeste 0 -- -- 77
2019-04-06 10:00:00 6 5 Sudeste 19 Este 0 -- -- 89
2019-04-06 09:00:00 3.9 10 Sudeste 22 Este 0 -- -- 100
2019-04-06 08:00:00 2.1 7 Sudeste 17 Sudeste 0 -- -- 100
2019-04-06 07:00:00 2.4 7 Sudeste 17 Este 0 -- -- 100
2019-04-06 06:00:00 2.2 2 Sur 11 Sudoeste 0 -- -- 100
2019-04-06 05:00:00 2.5 2 Sudoeste 7 Oeste 0 -- -- 100
2019-04-06 04:00:00 2.5 6 Sur 10 Sudeste 0 -- -- 100
2019-04-06 03:00:00 2.8 7 Sudeste 10 Sudeste 0 -- -- 100
2019-04-06 02:00:00 3 7 Sudeste 10 Este 0 -- -- 99
2019-04-06 01:00:00 3.6 3 Este 5 Este 0 -- -- 99
2019-04-06 00:00:00 3.8 0 Calma 6 Este 0.2 -- -- 98
2019-04-05 23:00:00 4.5 0 Calma 6 Sur 0 -- -- 96
2019-04-05 22:00:00 4.7 6 Sudeste 22 Oeste 1 -- -- 96
2019-04-05 21:00:00 5.2 22 Oeste -- -- 2.4 -- -- 92
2019-04-05 20:00:00 8.4 18 Noroeste 27 Noroeste 0 -- -- 79
2019-04-05 19:00:00 10.3 13 Noroeste 27 Oeste 0 -- -- 72
2019-04-05 18:00:00 13 17 Oeste 40 Oeste 0 -- -- 56
2019-04-05 17:00:00 14.6 20 Oeste 40 Oeste 0 -- -- 29
2019-04-05 16:00:00 15.1 17 Sur 31 Sur 0 -- -- 36
2019-04-05 15:00:00 14.5 12 Norte 30 Sudoeste 0 -- -- 50
2019-04-05 14:00:00 14.8 12 Sudeste 31 Sudoeste 0 -- -- 52
2019-04-05 13:00:00 10.8 4 Sudoeste 15 Sur 0 -- -- 70
2019-04-05 12:00:00 11 7 Sur 12 Sur 0 -- -- 74
2019-04-05 11:00:00 7.7 9 Oeste 14 Este 0 -- -- 90
2019-04-05 10:00:00 7.1 6 Este 17 Sudeste 0 -- -- 97
2019-04-05 09:00:00 5.5 3 Sudeste 10 Oeste 0.2 -- -- 97
2019-04-05 08:00:00 5.8 8 Oeste 15 Oeste 0 -- -- 94
2019-04-05 07:00:00 6 12 Oeste 23 Oeste 0 -- -- 90
2019-04-05 06:00:00 6.2 12 Oeste 22 Sudoeste 0 -- -- 86
2019-04-05 05:00:00 6.8 4 Sudoeste 27 Este 0 -- -- 73
2019-04-05 04:00:00 7.5 9 Sudoeste 20 Sudoeste 0 -- -- 68
2019-04-05 03:00:00 7.8 6 Sudeste 19 Sur 0 -- -- 66
2019-04-05 02:00:00 8 10 Sudeste 37 Sudoeste 0 -- -- 67
2019-04-05 01:00:00 8.5 9 Este 56 Sur 0 -- -- 68
2019-04-05 00:00:00 8.9 20 Sudoeste 48 Oeste 0 -- -- 58
2019-04-04 23:00:00 7.9 15 Sur 40 Sur 0 -- -- 68
2019-04-04 22:00:00 8.2 13 Sudeste 57 Sur 0 -- -- 69
2019-04-04 21:00:00 9.2 27 Sudoeste 49 Sur 0 -- -- 59
2019-04-04 20:00:00 9.7 30 Sudoeste 49 Sudoeste 0 -- -- 53
2019-04-04 19:00:00 10.2 31 Sudoeste 66 Sudoeste 0 -- -- 48
2019-04-04 18:00:00 10.6 21 Sudoeste 61 Sudoeste 0 -- -- 49
2019-04-04 17:00:00 10.9 28 Sudoeste 59 Oeste 0 -- -- 43
2019-04-04 16:00:00 11.6 28 Sudoeste 57 Sudoeste 0 -- -- 44
2019-04-04 15:00:00 11.8 18 Sudoeste 40 Sudoeste 0 -- -- 39
2019-04-04 14:00:00 12.7 16 Sudoeste 28 Sudoeste 0 -- -- 44
2019-04-04 13:00:00 11.5 10 Nordeste 20 Noroeste 0 -- -- 50
2019-04-04 12:00:00 10.3 7 Noroeste 26 Noroeste 0 -- -- 60
2019-04-04 11:00:00 8 10 Noroeste 30 Oeste 0 -- -- 62
2019-04-04 10:00:00 5.8 6 Norte 19 Noroeste 0 -- -- 73
2019-04-04 09:00:00 3.7 7 Norte 23 Norte 0 -- -- 78
2019-04-04 08:00:00 3.2 13 Noroeste 36 Oeste 0 -- -- 81
2019-04-04 07:00:00 3.1 14 Noroeste 33 Oeste 0 -- -- 82
2019-04-04 06:00:00 2.8 14 Noroeste 40 Noroeste 0 -- -- 87
2019-04-04 05:00:00 2.8 15 Noroeste 27 Noroeste 0 -- -- 89
2019-04-04 04:00:00 1.9 13 Noroeste 28 Norte 0 -- -- 98
2019-04-04 03:00:00 2 12 Noroeste 29 Norte 0 -- -- 99
2019-04-04 02:00:00 1.8 8 Nordeste 43 Sudoeste 0 -- -- 100
2019-04-04 01:00:00 1.3 7 Este 25 Oeste 1 -- -- 100
2019-04-04 00:00:00 1.3 8 Norte 18 Noroeste 0.8 -- -- 100
2019-04-03 23:00:00 1.4 4 Norte 28 Noroeste 0.8 -- -- 99
2019-04-03 22:00:00 1.6 24 Noroeste 50 Oeste 1.4 -- -- 96
2019-04-03 21:00:00 2.8 6 Norte 40 Oeste 0 -- -- 94
2019-04-03 20:00:00 3.1 6 Norte 42 Oeste 0 -- -- 96
2019-04-03 19:00:00 3.1 32 Oeste 47 Oeste 0.4 -- -- 91
2019-04-03 18:00:00 4.3 6 Norte 38 Oeste 0.8 -- -- 98
2019-04-03 17:00:00 2.5 28 Noroeste 54 Oeste 1.6 -- -- 94
2019-04-03 16:00:00 3.3 28 Oeste -- -- 0.8 -- -- 92
2019-04-03 15:00:00 4.5 31 Oeste 47 Oeste 0.6 -- -- 96
2019-04-03 14:00:00 4.4 12 Noroeste 42 Norte 2.2 -- -- 100
2019-04-03 13:00:00 3.7 30 Norte 50 Oeste 0.6 -- -- 92
2019-04-03 12:00:00 4.9 15 Noroeste 38 Noroeste 0.8 -- -- 96
2019-04-03 11:00:00 3.7 19 Noroeste 47 Oeste 1.2 -- -- 96
2019-04-03 10:00:00 4 23 Noroeste 38 Noroeste 0.2 -- -- 97
2019-04-03 09:00:00 3.8 22 Noroeste 42 Oeste 0.4 -- -- 98
2019-04-03 08:00:00 3.9 27 Noroeste 46 Oeste 0.6 -- -- 97
2019-04-03 07:00:00 4 31 Oeste 53 Oeste 1 -- -- 99
2019-04-03 06:00:00 4.4 24 Noroeste 38 Noroeste 0.6 -- -- 98
2019-04-03 05:00:00 5 19 Noroeste 39 Noroeste 0.2 -- -- 96
2019-04-03 04:00:00 5.5 19 Noroeste 30 Norte 0 -- -- 91
2019-04-03 03:00:00 5.4 21 Oeste 53 Oeste 0.4 -- -- 91
2019-04-03 02:00:00 5.5 14 Noroeste 38 Noroeste 0.4 -- -- 98
2019-04-03 01:00:00 6.1 22 Noroeste 33 Noroeste 0 -- -- 98
2019-04-03 00:00:00 6.2 10 Noroeste 37 Oeste 0 -- -- 97
2019-04-02 23:00:00 6.2 28 Oeste 40 Oeste 0.2 -- -- 98
2019-04-02 22:00:00 6.5 15 Noroeste 27 Oeste 0.2 -- -- 98
2019-04-02 21:00:00 6.8 28 Oeste 39 Oeste 0.4 -- -- 97
2019-04-02 20:00:00 7.7 18 Noroeste 28 Oeste 0.4 -- -- 99
2019-04-02 19:00:00 8.5 17 Noroeste 33 Norte 0 -- -- 91
2019-04-02 18:00:00 9.5 19 Norte 40 Norte 0 -- -- 81
2019-04-02 17:00:00 11.6 11 Norte 27 Norte 0 -- -- 76
2019-04-02 16:00:00 12.6 15 Norte 28 Norte 0 -- -- 71
2019-04-02 15:00:00 11.7 23 Oeste 32 Oeste 0 -- -- 74
2019-04-02 14:00:00 11.4 21 Oeste 31 Oeste 0 -- -- 73
2019-04-02 13:00:00 11 23 Oeste 40 Norte 0 -- -- 76
2019-04-02 12:00:00 10.9 22 Norte 36 Norte 0 -- -- 80
2019-04-02 11:00:00 11.1 19 Noroeste 32 Noroeste 0 -- -- 81
2019-04-02 10:00:00 9 7 Noroeste 15 Noroeste 0 -- -- 89
2019-04-02 09:00:00 7.7 13 Noroeste 33 Oeste 0 -- -- 94
2019-04-02 08:00:00 6.5 19 Oeste 26 Oeste 0 -- -- 89
2019-04-02 07:00:00 7.5 5 Oeste 6 Sudoeste 0 -- -- 82
2019-04-02 06:00:00 8 5 Oeste 10 Oeste 0 -- -- 80
2019-04-02 05:00:00 8.3 5 Noroeste 8 Noroeste 0 -- -- 73
2019-04-02 04:00:00 8.5 0 Calma 6 Nordeste 0 -- -- 75
2019-04-02 03:00:00 8.7 0 Calma 3 Oeste 0 -- -- 75
2019-04-02 02:00:00 8.5 0 Calma -- -- 0 -- -- 81
2019-04-02 01:00:00 8.8 2 Oeste 3 Sudoeste 0 -- -- 81
2019-04-02 00:00:00 9.1 2 Sudoeste 5 Sur 0 -- -- 83
2019-04-01 23:00:00 9.9 5 Sudeste 9 Sudeste 0 -- -- 82
2019-04-01 22:00:00 10.9 8 Sudeste 9 Sudeste 0 -- -- 77
2019-04-01 21:00:00 12.2 6 Oeste 11 Oeste 0 -- -- 70
2019-04-01 20:00:00 13.4 9 Oeste 23 Oeste 0 -- -- 67
2019-04-01 19:00:00 14.7 17 Oeste 26 Oeste 0 -- -- 62
2019-04-01 18:00:00 16.4 19 Oeste 31 Oeste 0 -- -- 60
2019-04-01 17:00:00 17.3 21 Oeste 28 Oeste 0 -- -- 56
2019-04-01 16:00:00 18.7 9 Norte 21 Norte 0 -- -- 42
2019-04-01 15:00:00 17.8 9 Este 17 Este 0 -- -- 48
2019-04-01 14:00:00 18.1 6 Sudeste 15 Sudeste 0 -- -- 51
2019-04-01 13:00:00 17.4 7 Sudeste 17 Este 0.4 -- -- 47
2019-04-01 12:00:00 16 6 Sudeste 10 Sudeste 0 -- -- 49
2019-04-01 11:00:00 11.6 4 Sudoeste 6 Sudeste 0 -- -- 55
2019-04-01 10:00:00 8.7 0 Calma 4 Nordeste 0 -- -- 64
2019-04-01 09:00:00 6.8 0 Calma 3 Norte 0 -- -- 65
2019-04-01 08:00:00 6.5 0 Calma 4 Este 0 -- -- 69
2019-04-01 07:00:00 6.9 0 Calma 3 Sudoeste 0 -- -- 69
2019-04-01 06:00:00 6.9 0 Calma 6 Sudeste 0 -- -- 74
2019-04-01 05:00:00 8 4 Oeste 10 Sur 0 -- -- 72
2019-04-01 04:00:00 8.2 7 Oeste 9 Oeste 0 -- -- 69
2019-04-01 03:00:00 8.5 3 Este 11 Este 0 -- -- 66
2019-04-01 02:00:00 8.8 2 Sur 12 Sudeste 0 -- -- 70
2019-04-01 01:00:00 9.2 10 Sudeste 12 Sudeste 0 -- -- 72
2019-04-01 00:00:00 10.9 8 Sudeste 13 Sudeste 0 -- -- 66
2019-03-31 23:00:00 11 12 Sudeste 16 Sudeste 0 -- -- 64
2019-03-31 22:00:00 11.3 13 Sudeste 21 Este 0 -- -- 61
2019-03-31 21:00:00 12.3 12 Este 23 Este 0 -- -- 55
2019-03-31 20:00:00 14.2 13 Sudeste 31 Sudeste 0 -- -- 50
2019-03-31 19:00:00 16.8 19 Este 39 Sudeste 0 -- -- 44
2019-03-31 18:00:00 19 24 Este 52 Sudeste 0 -- -- 44
2019-03-31 17:00:00 19.3 34 Este 53 Este 0 -- -- 44
2019-03-31 16:00:00 20.2 30 Este 49 Este 0 -- -- 38
2019-03-31 15:00:00 20.3 24 Este 42 Sudeste 0 -- -- 41
2019-03-31 14:00:00 19.8 24 Este 42 Este 0 -- -- 39
2019-03-31 13:00:00 19.6 22 Este 36 Este 0 -- -- 39
2019-03-31 12:00:00 17.9 10 Sudeste 17 Sudeste 0 -- -- 47
2019-03-31 11:00:00 14.3 6 Sudeste 14 Sudeste 0 -- -- 58
2019-03-31 10:00:00 10.6 5 Sudeste 12 Sudeste 0 -- -- 75
2019-03-31 09:00:00 8.2 4 Sudeste 7 Sudeste 0 -- -- 79
2019-03-31 08:00:00 7.9 5 Este 8 Sudeste 0 -- -- 80
2019-03-31 07:00:00 8.8 4 Este 7 Este 0 -- -- 77
2019-03-31 06:00:00 9.4 0 Calma 5 Sudeste 0 -- -- 78
2019-03-31 05:00:00 10 0 Calma 4 Este 0 -- -- 75
2019-03-31 03:00:00 10.7 9 Sudeste 16 Sudeste 0 -- -- 75
2019-03-31 01:00:00 10.7 12 Sudeste 15 Sudeste 0 -- -- 76
2019-03-31 00:00:00 11.4 9 Sudeste 11 Sudeste 0 -- -- 74
2019-03-30 23:00:00 11.7 5 Sudeste 7 Sudeste 0 -- -- 72
2019-03-30 22:00:00 12.5 5 Oeste 6 Oeste 0 -- -- 69
2019-03-30 21:00:00 12.6 3 Sur 10 Este 0 -- -- 65
2019-03-30 20:00:00 12.7 8 Este 12 Este 0 -- -- 64
2019-03-30 19:00:00 13.7 5 Sur 24 Este 0 -- -- 63
2019-03-30 18:00:00 15 12 Sudeste 27 Este 0 -- -- 57
2019-03-30 17:00:00 17.5 14 Este 23 Este 0 -- -- 50
2019-03-30 16:00:00 18.4 4 Sudeste 15 Sur 0 -- -- 50
2019-03-30 15:00:00 16.5 10 Oeste 20 Oeste 0 -- -- 59
2019-03-30 14:00:00 17.1 17 Oeste 26 Oeste 0 -- -- 51
2019-03-30 13:00:00 19.6 7 Oeste 12 Oeste 0 -- -- 44
2019-03-30 12:00:00 18.8 6 Sudeste 10 Sudeste 0 -- -- 44
2019-03-30 11:00:00 15.7 2 Nordeste 5 Sudeste 0 -- -- 57
2019-03-30 10:00:00 12.3 0 Calma 12 Este 0 -- -- 81
2019-03-30 09:00:00 8.8 3 Sudeste 5 Este 0 -- -- 84
2019-03-30 08:00:00 7.9 0 Calma 5 Oeste 0 -- -- 84
2019-03-30 07:00:00 7.6 3 Oeste 4 Sudoeste 0 -- -- 82
2019-03-30 06:00:00 7.8 0 Calma 13 Oeste 0 -- -- 85
2019-03-30 05:00:00 7.6 6 Oeste 12 Sudoeste 0 -- -- 88
2019-03-30 04:00:00 7.4 2 Sur 10 Sur 0 -- -- 87
2019-03-30 03:00:00 8.1 2 Noroeste 8 Oeste 0 -- -- 86
2019-03-30 02:00:00 7.9 3 Sudoeste 8 Sudoeste 0 -- -- 89
2019-03-30 01:00:00 8 2 Sur 6 Oeste 0 -- -- 89
2019-03-30 00:00:00 8.3 2 Sudeste 7 Sudeste 0 -- -- 88
2019-03-29 23:00:00 8.8 3 Sudeste 6 Este 0 -- -- 86
2019-03-29 22:00:00 9.5 3 Sur 6 Sur 0 -- -- 81
2019-03-29 21:00:00 9.8 6 Sudeste 16 Sudeste 0 -- -- 80
2019-03-29 20:00:00 11 12 Sudeste 15 Sudeste 0 -- -- 76
2019-03-29 19:00:00 13.6 3 Sudoeste 15 Oeste 0 -- -- 71
2019-03-29 18:00:00 15.5 11 Oeste 17 Sudoeste 0 -- -- 66
2019-03-29 17:00:00 18.5 9 Oeste 18 Oeste 0 -- -- 55
2019-03-29 16:00:00 18.7 10 Oeste 18 Oeste 0 -- -- 55
2019-03-29 15:00:00 19.3 3 Norte 19 Sur 0 -- -- 50
2019-03-29 14:00:00 18.7 5 Este 15 Sudeste 0 -- -- 44
2019-03-29 13:00:00 17.9 5 Sudeste 15 Sudeste 0 -- -- 46
2019-03-29 12:00:00 16.2 6 Sudeste 15 Este 0 -- -- 50
2019-03-29 11:00:00 12.9 4 Este 10 Sudeste 0 -- -- 75
2019-03-29 10:00:00 8.5 4 Sudoeste 6 Sudoeste 0 -- -- 96
2019-03-29 09:00:00 6.1 2 Sur 4 Sur 0 -- -- 100
2019-03-29 08:00:00 4.7 0 Calma 3 Sudoeste 0 -- -- 100
2019-03-29 07:00:00 4.5 3 Oeste 4 Oeste 0 -- -- 100
2019-03-29 06:00:00 4.9 0 Calma 3 Sudoeste 0 -- -- 100
2019-03-29 05:00:00 5.1 2 Oeste 5 Oeste 0 -- -- 100
2019-03-29 04:00:00 5.1 5 Oeste 6 Oeste 0 -- -- 100
2019-03-29 03:00:00 5.5 4 Sudoeste 7 Sudoeste 0 -- -- 100
2019-03-29 02:00:00 5.3 4 Sudeste 10 Sudeste 0 -- -- 100
2019-03-29 01:00:00 6.2 4 Sudeste 6 Sudeste 0 -- -- 99
2019-03-29 00:00:00 6.4 0 Calma 12 Sudeste 0 -- -- 99
2019-03-28 23:00:00 6.7 8 Sudeste 16 Sudeste 0 -- -- 98
2019-03-28 22:00:00 7 9 Sudeste 23 Este 0 -- -- 96
2019-03-28 21:00:00 7.4 9 Sudeste 23 Este 0 -- -- 93
2019-03-28 20:00:00 8.5 13 Sudeste 31 Este 0 -- -- 87
2019-03-28 19:00:00 11.5 14 Este 31 Sudeste 0 -- -- 75
2019-03-28 18:00:00 14.1 19 Este 32 Este 0 -- -- 65
2019-03-28 17:00:00 16.1 13 Sudeste 27 Este 0 -- -- 59
2019-03-28 16:00:00 16.4 19 Este 29 Este 0 -- -- 58
2019-03-28 15:00:00 17.1 19 Este 30 Este 0 -- -- 53
2019-03-28 14:00:00 16.6 14 Este 32 Este 0 -- -- 53
2019-03-28 13:00:00 16.4 16 Este 29 Sudeste 0 -- -- 52
2019-03-28 12:00:00 15.1 18 Sudeste 34 Este 0 -- -- 52
2019-03-28 11:00:00 12.8 12 Sudeste 23 Este 0 -- -- 59
2019-03-28 10:00:00 9 5 Sudeste 14 Este 0 -- -- 75
2019-03-28 09:00:00 4.8 5 Sudoeste 6 Oeste 0 -- -- 88
2019-03-28 08:00:00 3.3 0 Calma 4 Sudoeste 0 -- -- 95
2019-03-28 07:00:00 2.9 0 Calma 8 Sudeste 0 -- -- 97
2019-03-28 06:00:00 3.2 5 Sudeste 6 Sudeste 0 -- -- 96
2019-03-28 05:00:00 3.5 0 Calma 4 Este 0 -- -- 98
2019-03-28 04:00:00 3.2 3 Este 12 Sudeste 0 -- -- 97
2019-03-28 03:00:00 3.9 3 Este 13 Sudeste 0 -- -- 96
2019-03-28 02:00:00 4.3 6 Sudeste 18 Sudeste 0 -- -- 95
2019-03-28 01:00:00 4.8 13 Sudeste 18 Sudeste 0 -- -- 95
2019-03-28 00:00:00 5 10 Sudeste 20 Sudeste 0 -- -- 95
2019-03-27 23:00:00 5.2 8 Sudeste 12 Este 0 -- -- 94
2019-03-27 22:00:00 5.6 6 Sudeste 15 Este 0 -- -- 92
2019-03-27 21:00:00 6 9 Este 28 Este 0 -- -- 90
2019-03-27 20:00:00 7.2 14 Este 33 Este 0 -- -- 85
2019-03-27 19:00:00 10.4 17 Este 32 Sudeste 0 -- -- 73
2019-03-27 18:00:00 13.4 20 Sudeste 33 Sudeste 0 -- -- 60
2019-03-27 17:00:00 15 18 Este 39 Este 0 -- -- 54
2019-03-27 16:00:00 15.6 25 Este 42 Este 0 -- -- 54
2019-03-27 15:00:00 16.2 19 Este 41 Este 0 -- -- 52
2019-03-27 14:00:00 16.4 19 Este 41 Este 0 -- -- 51
2019-03-27 13:00:00 16 23 Este 39 Este 0 -- -- 48
2019-03-27 12:00:00 15.5 16 Este 33 Sudeste 0 -- -- 43
2019-03-27 11:00:00 13 12 Sudeste 26 Sudeste 0 -- -- 49
2019-03-27 10:00:00 9.9 9 Sudeste 15 Sudeste 0 -- -- 55
2019-03-27 09:00:00 5.4 3 Sudoeste 8 Este 0 -- -- 68
2019-03-27 08:00:00 3.8 3 Este 13 Sudeste 0 -- -- 74
2019-03-27 07:00:00 3.4 12 Sudeste 19 Sudeste 0 -- -- 75
2019-03-27 06:00:00 4.1 14 Sudeste 22 Sudeste 0 -- -- 74
2019-03-27 05:00:00 4.3 12 Sudeste 26 Sudeste 0 -- -- 74
2019-03-27 04:00:00 4.8 15 Sudeste 30 Sudeste 0 -- -- 73
2019-03-27 03:00:00 5.6 20 Sudeste 43 Este 0 -- -- 69
2019-03-27 02:00:00 6 26 Sudeste 43 Sudeste 0 -- -- 70
2019-03-27 01:00:00 5.7 25 Sudeste 46 Este 0 -- -- 69
2019-03-27 00:00:00 5.8 20 Sudeste 44 Sudeste 0 -- -- 71
2019-03-26 23:00:00 5.2 22 Sudeste 44 Sudeste 0 -- -- 81
2019-03-26 22:00:00 5.3 26 Sudeste 45 Este 0 -- -- 86
2019-03-26 21:00:00 6 26 Sudeste 44 Sudeste 0 -- -- 83
2019-03-26 20:00:00 6.4 24 Este 49 Sudeste 0 -- -- 83
2019-03-26 19:00:00 8.8 23 Este 54 Sudeste 0 -- -- 73
2019-03-26 18:00:00 11 30 Este 54 Sudeste 0 -- -- 65
2019-03-26 17:00:00 12.2 27 Este 50 Este 0 -- -- 61
2019-03-26 16:00:00 12.9 28 Sudeste 54 Este 0 -- -- 59
2019-03-26 15:00:00 13.4 34 Este 60 Este 0 -- -- 56
2019-03-26 14:00:00 14.1 31 Este 57 Este 0 -- -- 53
2019-03-26 13:00:00 14.2 32 Este 61 Este 0 -- -- 46
2019-03-26 12:00:00 13.1 35 Este 58 Este 0 -- -- 44
2019-03-26 11:00:00 11 36 Este 60 Este 0 -- -- 55
2019-03-26 10:00:00 9.3 37 Este 62 Este 0 -- -- 62
2019-03-26 09:00:00 7.5 42 Este 62 Este 0 -- -- 71
2019-03-26 08:00:00 6 27 Este 52 Este 0 -- -- 73
2019-03-26 07:00:00 5.8 26 Este 51 Este 0 -- -- 80
2019-03-26 06:00:00 6.3 29 Este 49 Este 0 -- -- 86
2019-03-26 05:00:00 6.7 23 Este 42 Este 0 -- -- 85
2019-03-26 04:00:00 5.8 15 Este 35 Este 0 -- -- 84
2019-03-26 03:00:00 6.7 17 Este 31 Sudeste 0 -- -- 81
2019-03-26 02:00:00 6.5 16 Este 27 Este 0 -- -- 79
2019-03-26 01:00:00 5.7 16 Este 30 Este 0 -- -- 89
2019-03-26 00:00:00 5.5 13 Este 36 Este 0 -- -- 91
2019-03-25 23:00:00 6.1 10 Este 40 Sudeste 0 -- -- 90
2019-03-25 22:00:00 6.2 15 Este 35 Este 0 -- -- 91
2019-03-25 21:00:00 6.7 17 Este 41 Este 0 -- -- 89
2019-03-25 20:00:00 7.4 17 Este 37 Este 0 -- -- 86
2019-03-25 19:00:00 10.1 21 Este 40 Este 0 -- -- 75
2019-03-25 18:00:00 12 18 Este 41 Sudeste 0 -- -- 69
2019-03-25 17:00:00 13.5 21 Este 42 Este 0 -- -- 65
2019-03-25 16:00:00 13.6 25 Este 50 Este 0 -- -- 63
2019-03-25 15:00:00 14 28 Este 46 Este 0 -- -- 63
2019-03-25 14:00:00 14.3 26 Este 44 Este 0 -- -- 60
2019-03-25 13:00:00 14.9 22 Este 35 Este 0 -- -- 58
2019-03-25 12:00:00 11.7 25 Este 44 Este 0 -- -- 74
2019-03-25 11:00:00 11.9 24 Este 37 Este 0 -- -- 79
2019-03-25 10:00:00 10.5 16 Este 30 Este 0 -- -- 86
2019-03-25 09:00:00 8.7 8 Este 17 Sudeste 0 -- -- 98
2019-03-25 08:00:00 8 8 Sudeste 12 Sudeste 0 -- -- 99
2019-03-25 07:00:00 8 8 Sudeste 13 Sudeste 0 -- -- 99
2019-03-25 06:00:00 8.1 7 Sudeste 11 Sudeste 0 -- -- 98
2019-03-25 05:00:00 8.1 3 Sur 11 Sudoeste 0 -- -- 97
2019-03-25 04:00:00 8.4 0 Calma 5 Sur 0 -- -- 94
2019-03-25 03:00:00 8.3 3 Este 6 Oeste 0 -- -- 94
2019-03-25 02:00:00 8.2 4 Oeste 9 Sudoeste 0 -- -- 97
2019-03-25 01:00:00 8.6 0 Calma 4 Sur 0 -- -- 97
2019-03-25 00:00:00 8.3 0 Calma 12 Oeste 0 -- -- 98